createdAt,value
2023-03-07T00:01:13.012Z,0.00
2023-03-07T00:06:12.938Z,0.00
2023-03-07T00:11:12.876Z,0.00
2023-03-07T00:16:12.869Z,4.88
2023-03-07T00:21:12.749Z,0.00
2023-03-07T00:26:12.686Z,0.00
2023-03-07T00:31:12.640Z,0.00
2023-03-07T00:36:12.598Z,0.00
2023-03-07T00:41:12.513Z,0.00
2023-03-07T00:46:12.468Z,0.00
2023-03-07T00:51:12.417Z,4.88
2023-03-07T00:56:12.345Z,0.00
2023-03-07T01:01:12.286Z,0.00
2023-03-07T01:06:12.239Z,0.00
2023-03-07T01:11:12.169Z,4.88
2023-03-07T01:16:12.119Z,0.00
2023-03-07T01:21:12.047Z,0.00
2023-03-07T01:26:12.010Z,0.00
2023-03-07T01:31:12.262Z,0.00
2023-03-07T01:36:11.984Z,0.00
2023-03-07T01:41:11.792Z,0.00
2023-03-07T01:46:11.754Z,0.00
2023-03-07T01:51:11.648Z,0.00
2023-03-07T01:56:11.634Z,0.00
2023-03-07T02:01:11.602Z,0.00
2023-03-07T02:06:11.468Z,4.88
2023-03-07T02:11:11.429Z,0.00
2023-03-07T02:16:11.447Z,0.00
2023-03-07T02:21:11.267Z,0.00
2023-03-07T02:26:11.201Z,0.00
2023-03-07T02:31:11.201Z,0.00
2023-03-07T02:36:11.097Z,0.00
2023-03-07T02:41:11.022Z,0.00
2023-03-07T02:46:11.011Z,0.00
2023-03-07T02:51:10.923Z,0.00
2023-03-07T02:56:10.863Z,0.00
2023-03-07T03:01:10.770Z,0.00
2023-03-07T03:06:10.732Z,0.00
2023-03-07T03:11:10.697Z,0.00
2023-03-07T03:16:10.664Z,0.00
2023-03-07T03:21:10.544Z,0.00
2023-03-07T03:26:10.467Z,0.00
2023-03-07T03:31:10.561Z,0.00
2023-03-07T03:36:10.443Z,0.00
2023-03-07T03:41:10.275Z,0.00
2023-03-07T03:46:10.277Z,4.88
2023-03-07T03:51:10.186Z,4.88
2023-03-07T03:56:10.114Z,0.00
2023-03-07T04:01:10.018Z,0.00
2023-03-07T04:06:10.011Z,4.88
2023-03-07T04:11:09.896Z,0.00
2023-03-07T04:16:09.888Z,0.00
2023-03-07T04:21:09.789Z,0.00
2023-03-07T04:26:09.812Z,0.00
2023-03-07T04:31:09.677Z,4.88
2023-03-07T04:36:09.659Z,0.00
2023-03-07T04:41:09.556Z,0.00
2023-03-07T04:46:09.504Z,0.00
2023-03-07T04:51:09.431Z,0.00
2023-03-07T04:56:09.366Z,0.00
2023-03-07T05:01:09.424Z,0.00
2023-03-07T05:06:09.243Z,0.00
2023-03-07T05:11:09.199Z,0.00
2023-03-07T05:16:09.225Z,0.00
2023-03-07T05:21:09.105Z,0.00
2023-03-07T05:26:09.045Z,0.00
2023-03-07T05:31:08.956Z,0.00
2023-03-07T05:36:08.865Z,0.00
2023-03-07T05:41:08.820Z,0.00
2023-03-07T05:46:08.817Z,0.00
2023-03-07T05:51:08.675Z,0.00
2023-03-07T05:56:08.672Z,4.88
2023-03-07T06:01:08.550Z,0.00
2023-03-07T06:06:08.516Z,0.00
2023-03-07T06:11:08.431Z,0.00
2023-03-07T06:16:08.445Z,0.00
2023-03-07T06:21:08.349Z,4.88
2023-03-07T06:26:08.243Z,0.00
2023-03-07T06:31:08.294Z,0.00
2023-03-07T06:36:08.164Z,0.00
2023-03-07T06:41:08.090Z,0.00
2023-03-07T06:46:08.075Z,0.00
2023-03-07T06:51:07.949Z,4.88
2023-03-07T06:56:07.905Z,0.00
2023-03-07T07:01:07.832Z,4.88
2023-03-07T07:06:07.751Z,4.88
2023-03-07T07:11:07.708Z,4.88
2023-03-07T07:16:07.685Z,0.00
2023-03-07T07:21:07.564Z,0.00
2023-03-07T07:26:07.513Z,0.00
2023-03-07T07:31:07.451Z,0.00
2023-03-07T07:36:07.463Z,4.88
2023-03-07T07:41:07.326Z,0.00
2023-03-07T07:46:07.376Z,0.00
2023-03-07T07:51:07.224Z,4.88
2023-03-07T07:56:07.163Z,0.00
2023-03-07T08:01:07.101Z,0.00
2023-03-07T08:06:07.047Z,0.00
2023-03-07T08:11:07.001Z,0.00
2023-03-07T08:16:07.000Z,0.00
2023-03-07T08:21:06.901Z,0.00
2023-03-07T08:26:06.823Z,0.00
2023-03-07T08:31:06.868Z,0.00
2023-03-07T08:36:06.806Z,0.00
2023-03-07T08:41:06.666Z,0.00
2023-03-07T08:46:06.625Z,0.00
2023-03-07T08:51:06.518Z,0.00
2023-03-07T08:56:06.463Z,0.00
2023-03-07T09:01:06.440Z,0.00
2023-03-07T09:06:06.349Z,0.00
2023-03-07T09:11:06.305Z,0.00
2023-03-07T09:16:06.292Z,0.00
2023-03-07T09:21:06.219Z,4.88
2023-03-07T09:26:06.116Z,0.00
2023-03-07T09:31:06.131Z,4.88
2023-03-07T09:36:06.037Z,0.00
2023-03-07T09:41:05.976Z,0.00
2023-03-07T09:46:05.943Z,0.00
2023-03-07T09:51:11.739Z,0.00
2023-03-07T09:56:06.773Z,0.00
2023-03-07T10:01:05.734Z,0.00
2023-03-07T10:06:05.648Z,0.00
2023-03-07T10:11:05.606Z,4.88
2023-03-07T10:16:05.508Z,0.00
2023-03-07T10:21:05.448Z,0.00
2023-03-07T10:26:05.422Z,0.00
2023-03-07T10:31:05.362Z,0.00
2023-03-07T10:36:05.335Z,0.00
2023-03-07T10:41:06.618Z,0.00
2023-03-07T10:46:12.745Z,0.00
2023-03-07T10:51:06.095Z,0.00
2023-03-07T10:56:04.991Z,24.40
2023-03-07T11:01:04.956Z,0.00
2023-03-07T11:06:04.904Z,0.00
2023-03-07T11:11:04.831Z,0.00
2023-03-07T11:16:11.604Z,0.00
2023-03-07T11:21:05.726Z,0.00
2023-03-07T11:26:04.622Z,0.00
2023-03-07T11:31:04.605Z,0.00
2023-03-07T11:36:04.597Z,0.00
2023-03-07T11:41:04.443Z,0.00
2023-03-07T11:46:04.532Z,0.00
2023-03-07T11:51:04.313Z,0.00
2023-03-07T11:56:04.243Z,0.00
2023-03-07T12:01:04.219Z,0.00
2023-03-07T12:06:04.168Z,0.00
2023-03-07T12:11:04.071Z,0.00
2023-03-07T12:16:04.072Z,0.00
2023-03-07T12:21:03.923Z,0.00
2023-03-07T12:26:03.865Z,0.00
2023-03-07T12:31:03.830Z,4.88
2023-03-07T12:36:03.796Z,0.00
2023-03-07T12:41:03.642Z,0.00
2023-03-07T12:46:03.601Z,4.88
2023-03-07T12:51:03.517Z,0.00
2023-03-07T12:56:03.437Z,4.88
2023-03-07T13:01:03.481Z,4.88
2023-03-07T13:06:03.414Z,0.00
2023-03-07T13:11:03.278Z,0.00
2023-03-07T13:16:03.216Z,0.00
2023-03-07T13:21:03.085Z,0.00
2023-03-07T13:26:03.030Z,0.00
2023-03-07T13:31:02.957Z,0.00
2023-03-07T13:36:02.898Z,4.88
2023-03-07T13:41:02.825Z,0.00
2023-03-07T13:46:02.769Z,0.00
2023-03-07T13:51:02.696Z,0.00
2023-03-07T13:56:03.045Z,414.80
2023-03-07T14:01:03.069Z,771.04
2023-03-07T14:06:02.462Z,126.88
2023-03-07T14:11:02.412Z,868.64
2023-03-07T14:16:02.408Z,727.12
2023-03-07T14:21:02.252Z,1005.28
2023-03-07T14:26:02.176Z,844.24
2023-03-07T14:31:02.179Z,1093.12
2023-03-07T14:36:02.141Z,961.36
2023-03-07T14:41:01.985Z,961.36
2023-03-07T14:46:01.957Z,1015.04
2023-03-07T14:51:01.852Z,1259.04
2023-03-07T14:56:01.784Z,1224.88
2023-03-07T15:01:01.702Z,1229.76
2023-03-07T15:06:01.631Z,1239.52
2023-03-07T15:11:01.593Z,1000.40
2023-03-07T15:16:01.529Z,1302.96
2023-03-07T15:21:01.413Z,1083.36
2023-03-07T15:26:01.344Z,653.92
2023-03-07T15:31:01.330Z,1024.80
2023-03-07T15:36:01.269Z,1034.56
2023-03-07T15:41:01.167Z,1034.56
2023-03-07T15:46:01.153Z,1054.08
2023-03-07T15:51:01.024Z,1112.64
2023-03-07T15:56:00.932Z,1039.44
2023-03-07T16:01:00.879Z,1029.68
2023-03-07T16:06:00.852Z,1029.68
2023-03-07T16:11:00.779Z,1024.80
2023-03-07T16:16:00.855Z,985.76
2023-03-07T16:21:00.635Z,990.64
2023-03-07T16:26:00.572Z,1039.44
2023-03-07T16:31:00.481Z,917.44
2023-03-07T16:36:00.449Z,839.36
2023-03-07T16:41:00.377Z,649.04
2023-03-07T16:46:00.346Z,639.28
2023-03-07T16:51:00.266Z,531.92
2023-03-07T16:56:00.150Z,556.32
2023-03-07T17:01:00.211Z,478.24
2023-03-07T17:06:00.092Z,492.88
2023-03-07T17:10:59.980Z,507.52
2023-03-07T17:15:59.932Z,488.00
2023-03-07T17:20:59.899Z,458.72
2023-03-07T17:25:59.799Z,370.88
2023-03-07T17:30:59.766Z,468.48
2023-03-07T17:35:59.675Z,429.44
2023-03-07T17:40:59.609Z,473.36
2023-03-07T17:45:59.567Z,531.92
2023-03-07T17:50:59.481Z,531.92
2023-03-07T17:55:59.430Z,556.32
2023-03-07T18:01:00.304Z,707.60
2023-03-07T18:05:59.277Z,595.36
2023-03-07T18:10:59.228Z,585.60
2023-03-07T18:16:00.229Z,610.00
2023-03-07T18:20:59.272Z,639.28
2023-03-07T18:25:59.083Z,741.76
2023-03-07T18:30:59.055Z,732.00
2023-03-07T18:35:59.012Z,673.44
2023-03-07T18:40:58.950Z,683.20
2023-03-07T18:45:58.873Z,658.80
2023-03-07T18:50:58.785Z,649.04
2023-03-07T18:55:58.719Z,590.48
2023-03-07T19:00:58.757Z,619.76
2023-03-07T19:05:58.623Z,595.36
2023-03-07T19:10:58.575Z,668.56
2023-03-07T19:15:58.529Z,644.16
2023-03-07T19:20:58.477Z,624.64
2023-03-07T19:25:58.451Z,614.88
2023-03-07T19:30:58.378Z,605.12
2023-03-07T19:35:58.328Z,600.24
2023-03-07T19:40:58.359Z,610.00
2023-03-07T19:45:58.211Z,649.04
2023-03-07T19:50:58.143Z,668.56
2023-03-07T19:55:58.064Z,0.00
2023-03-07T20:00:59.203Z,0.00
2023-03-07T20:05:57.984Z,0.00
2023-03-07T20:11:08.822Z,0.00
2023-03-07T20:15:58.874Z,0.00
2023-03-07T20:20:57.786Z,0.00
2023-03-07T20:25:57.727Z,0.00
2023-03-07T20:30:57.714Z,0.00
2023-03-07T20:35:57.628Z,0.00
2023-03-07T20:40:57.581Z,0.00
2023-03-07T20:45:57.581Z,0.00
2023-03-07T20:50:57.493Z,0.00
2023-03-07T20:55:57.393Z,0.00
2023-03-07T21:00:57.379Z,0.00
2023-03-07T21:05:57.307Z,0.00
2023-03-07T21:10:57.246Z,0.00
2023-03-07T21:15:57.268Z,0.00
2023-03-07T21:20:57.157Z,0.00
2023-03-07T21:25:57.083Z,0.00
2023-03-07T21:30:57.028Z,0.00
2023-03-07T21:35:57.031Z,0.00
2023-03-07T21:40:56.924Z,0.00
2023-03-07T21:45:58.611Z,0.00
2023-03-07T21:50:56.852Z,0.00
2023-03-07T21:55:56.749Z,0.00
2023-03-07T22:00:56.747Z,0.00
2023-03-07T22:05:57.466Z,0.00
2023-03-07T22:10:56.616Z,0.00
2023-03-07T22:15:56.547Z,0.00
2023-03-07T22:20:56.450Z,4.88
2023-03-07T22:25:56.409Z,0.00
2023-03-07T22:30:56.368Z,0.00
2023-03-07T22:35:56.362Z,0.00
2023-03-07T22:40:56.247Z,0.00
2023-03-07T22:45:56.296Z,0.00
2023-03-07T22:50:57.114Z,0.00
2023-03-07T22:55:56.061Z,0.00
2023-03-07T23:00:56.034Z,0.00
2023-03-07T23:05:55.962Z,0.00
2023-03-07T23:10:55.919Z,4.88
2023-03-07T23:15:55.913Z,0.00
2023-03-07T23:20:55.780Z,0.00
2023-03-07T23:25:55.751Z,0.00
2023-03-07T23:30:55.727Z,0.00
2023-03-07T23:35:55.620Z,0.00
2023-03-07T23:40:55.541Z,0.00
2023-03-07T23:45:55.573Z,0.00
2023-03-07T23:50:55.465Z,0.00
2023-03-07T23:55:55.389Z,0.00
